CheckWX is a tool to help pilots better visualize weather data.  It is not intended as a substitute for an official pre-flight weather briefing.

04:40:47 UTC

YPWR TAF
Woomera Airfield Airport
Woomera, Australia
TAF YPWR 222302Z 2300/2318 19010KT 9999 -SHRA NSC

Mar-23@
00:00 UTC

Mar-23 @ 00:00 UTC

Mar-23@
18:00 UTC

Mar-23 @ 18:00 UTC

TAF YPWR 222302Z 2300/2318 19010KT 9999 -SHRA NSC
Wind
  • 190° at 10 KTS
Conditions
Light Rain
Cloud Levels
  • No significant clouds